sensor_id;sensor_type;location;lat;lon;timestamp;P1;durP1;ratioP1;P2;durP2;ratioP2
62941;SDS011;49042;47.318;19.874;2023-05-21T00:02:18;11.18;;;8.02;;
62941;SDS011;49042;47.318;19.874;2023-05-21T00:05:20;26.25;;;9.35;;
62941;SDS011;49042;47.318;19.874;2023-05-21T00:08:22;13.90;;;8.20;;
62941;SDS011;49042;47.318;19.874;2023-05-21T00:11:23;14.20;;;8.75;;
62941;SDS011;49042;47.318;19.874;2023-05-21T00:14:25;14.02;;;8.77;;
62941;SDS011;49042;47.318;19.874;2023-05-21T00:17:27;15.05;;;9.10;;
62941;SDS011;49042;47.318;19.874;2023-05-21T00:20:28;17.50;;;10.68;;
62941;SDS011;49042;47.318;19.874;2023-05-21T00:23:32;21.08;;;10.20;;
62941;SDS011;49042;47.318;19.874;2023-05-21T00:26:34;17.10;;;9.40;;
62941;SDS011;49042;47.318;19.874;2023-05-21T00:29:36;21.80;;;10.48;;
62941;SDS011;49042;47.318;19.874;2023-05-21T00:32:37;14.90;;;9.27;;
62941;SDS011;49042;47.318;19.874;2023-05-21T00:35:39;19.30;;;9.77;;
62941;SDS011;49042;47.318;19.874;2023-05-21T00:38:41;18.77;;;9.32;;
62941;SDS011;49042;47.318;19.874;2023-05-21T00:41:46;15.63;;;9.57;;
62941;SDS011;49042;47.318;19.874;2023-05-21T00:44:48;17.00;;;8.93;;
62941;SDS011;49042;47.318;19.874;2023-05-21T00:47:50;24.05;;;8.98;;
62941;SDS011;49042;47.318;19.874;2023-05-21T00:50:54;14.68;;;8.35;;
62941;SDS011;49042;47.318;19.874;2023-05-21T00:53:56;14.73;;;8.27;;
62941;SDS011;49042;47.318;19.874;2023-05-21T00:56:58;15.23;;;8.07;;
62941;SDS011;49042;47.318;19.874;2023-05-21T01:00:00;14.87;;;7.97;;
62941;SDS011;49042;47.318;19.874;2023-05-21T01:03:02;17.05;;;8.13;;
62941;SDS011;49042;47.318;19.874;2023-05-21T01:06:05;12.85;;;7.80;;
62941;SDS011;49042;47.318;19.874;2023-05-21T01:09:07;13.32;;;7.62;;
62941;SDS011;49042;47.318;19.874;2023-05-21T01:12:09;11.98;;;8.25;;
62941;SDS011;49042;47.318;19.874;2023-05-21T01:15:11;12.52;;;7.78;;
62941;SDS011;49042;47.318;19.874;2023-05-21T01:18:13;10.00;;;7.40;;
62941;SDS011;49042;47.318;19.874;2023-05-21T01:21:16;13.75;;;7.82;;
62941;SDS011;49042;47.318;19.874;2023-05-21T01:24:18;10.35;;;7.30;;
62941;SDS011;49042;47.318;19.874;2023-05-21T01:27:20;10.05;;;6.57;;
62941;SDS011;49042;47.318;19.874;2023-05-21T01:30:22;9.15;;;7.72;;
62941;SDS011;49042;47.318;19.874;2023-05-21T01:33:26;8.18;;;6.90;;
62941;SDS011;49042;47.318;19.874;2023-05-21T01:36:30;11.20;;;7.35;;
62941;SDS011;49042;47.318;19.874;2023-05-21T01:39:33;10.38;;;7.55;;
62941;SDS011;49042;47.318;19.874;2023-05-21T01:42:38;13.18;;;7.70;;
62941;SDS011;49042;47.318;19.874;2023-05-21T01:45:41;10.55;;;7.50;;
62941;SDS011;49042;47.318;19.874;2023-05-21T01:48:43;9.25;;;7.60;;
62941;SDS011;49042;47.318;19.874;2023-05-21T01:51:45;16.23;;;8.02;;
62941;SDS011;49042;47.318;19.874;2023-05-21T01:54:47;15.50;;;7.20;;
62941;SDS011;49042;47.318;19.874;2023-05-21T01:57:51;11.95;;;7.22;;
62941;SDS011;49042;47.318;19.874;2023-05-21T02:00:53;10.23;;;6.90;;
62941;SDS011;49042;47.318;19.874;2023-05-21T02:03:55;17.10;;;7.35;;
62941;SDS011;49042;47.318;19.874;2023-05-21T02:06:58;15.65;;;7.60;;
62941;SDS011;49042;47.318;19.874;2023-05-21T02:09:59;11.63;;;7.45;;
62941;SDS011;49042;47.318;19.874;2023-05-21T02:13:01;9.60;;;7.22;;
62941;SDS011;49042;47.318;19.874;2023-05-21T02:16:03;9.40;;;7.07;;
62941;SDS011;49042;47.318;19.874;2023-05-21T02:19:05;12.02;;;7.00;;
62941;SDS011;49042;47.318;19.874;2023-05-21T02:22:07;12.23;;;6.82;;
62941;SDS011;49042;47.318;19.874;2023-05-21T02:25:09;12.00;;;7.72;;
62941;SDS011;49042;47.318;19.874;2023-05-21T02:28:10;11.43;;;7.35;;
62941;SDS011;49042;47.318;19.874;2023-05-21T02:31:13;11.68;;;7.15;;
62941;SDS011;49042;47.318;19.874;2023-05-21T02:34:14;10.50;;;7.12;;
62941;SDS011;49042;47.318;19.874;2023-05-21T02:37:16;8.95;;;6.80;;
62941;SDS011;49042;47.318;19.874;2023-05-21T02:40:19;11.40;;;6.55;;
62941;SDS011;49042;47.318;19.874;2023-05-21T02:43:20;9.52;;;7.18;;
62941;SDS011;49042;47.318;19.874;2023-05-21T02:46:22;12.02;;;6.85;;
62941;SDS011;49042;47.318;19.874;2023-05-21T02:49:24;10.43;;;6.65;;
62941;SDS011;49042;47.318;19.874;2023-05-21T02:52:25;10.85;;;7.00;;
62941;SDS011;49042;47.318;19.874;2023-05-21T02:55:27;8.73;;;6.87;;
62941;SDS011;49042;47.318;19.874;2023-05-21T02:58:29;14.63;;;7.60;;
62941;SDS011;49042;47.318;19.874;2023-05-21T03:01:31;10.57;;;7.68;;
62941;SDS011;49042;47.318;19.874;2023-05-21T03:04:32;11.80;;;7.47;;
62941;SDS011;49042;47.318;19.874;2023-05-21T03:07:39;10.70;;;7.47;;
62941;SDS011;49042;47.318;19.874;2023-05-21T03:10:42;10.13;;;7.10;;
62941;SDS011;49042;47.318;19.874;2023-05-21T03:13:43;10.75;;;7.72;;
62941;SDS011;49042;47.318;19.874;2023-05-21T03:16:45;11.40;;;7.32;;
62941;SDS011;49042;47.318;19.874;2023-05-21T03:19:47;12.68;;;7.90;;
62941;SDS011;49042;47.318;19.874;2023-05-21T03:22:49;10.13;;;7.03;;
62941;SDS011;49042;47.318;19.874;2023-05-21T03:25:51;17.00;;;7.95;;
62941;SDS011;49042;47.318;19.874;2023-05-21T03:28:52;14.50;;;8.90;;
62941;SDS011;49042;47.318;19.874;2023-05-21T03:31:54;15.95;;;8.10;;
62941;SDS011;49042;47.318;19.874;2023-05-21T03:34:56;12.80;;;7.43;;
62941;SDS011;49042;47.318;19.874;2023-05-21T03:37:57;12.65;;;7.65;;
62941;SDS011;49042;47.318;19.874;2023-05-21T03:40:59;12.95;;;8.07;;
62941;SDS011;49042;47.318;19.874;2023-05-21T03:44:00;12.85;;;7.93;;
62941;SDS011;49042;47.318;19.874;2023-05-21T03:47:02;12.63;;;7.82;;
62941;SDS011;49042;47.318;19.874;2023-05-21T03:50:04;12.77;;;8.13;;
62941;SDS011;49042;47.318;19.874;2023-05-21T03:53:06;15.52;;;8.73;;
62941;SDS011;49042;47.318;19.874;2023-05-21T03:56:08;13.57;;;7.97;;
62941;SDS011;49042;47.318;19.874;2023-05-21T03:59:09;13.52;;;7.68;;
62941;SDS011;49042;47.318;19.874;2023-05-21T04:02:11;9.38;;;7.37;;
62941;SDS011;49042;47.318;19.874;2023-05-21T04:05:12;11.70;;;7.97;;
62941;SDS011;49042;47.318;19.874;2023-05-21T04:08:14;14.45;;;7.70;;
62941;SDS011;49042;47.318;19.874;2023-05-21T04:11:16;13.80;;;7.90;;
62941;SDS011;49042;47.318;19.874;2023-05-21T04:14:17;10.80;;;6.95;;
62941;SDS011;49042;47.318;19.874;2023-05-21T04:17:19;13.45;;;7.82;;
62941;SDS011;49042;47.318;19.874;2023-05-21T04:20:21;12.27;;;7.12;;
62941;SDS011;49042;47.318;19.874;2023-05-21T04:23:23;13.52;;;7.43;;
62941;SDS011;49042;47.318;19.874;2023-05-21T04:26:24;15.32;;;7.47;;
62941;SDS011;49042;47.318;19.874;2023-05-21T04:29:26;9.20;;;6.45;;
62941;SDS011;49042;47.318;19.874;2023-05-21T04:32:28;14.43;;;6.93;;
62941;SDS011;49042;47.318;19.874;2023-05-21T04:35:31;10.35;;;6.72;;
62941;SDS011;49042;47.318;19.874;2023-05-21T04:38:32;11.80;;;7.15;;
62941;SDS011;49042;47.318;19.874;2023-05-21T04:41:34;12.60;;;7.37;;
62941;SDS011;49042;47.318;19.874;2023-05-21T04:44:37;10.68;;;7.70;;
62941;SDS011;49042;47.318;19.874;2023-05-21T04:47:39;7.75;;;6.28;;
62941;SDS011;49042;47.318;19.874;2023-05-21T04:50:40;17.52;;;7.20;;
62941;SDS011;49042;47.318;19.874;2023-05-21T04:53:42;10.88;;;6.53;;
62941;SDS011;49042;47.318;19.874;2023-05-21T04:56:43;15.98;;;6.85;;
62941;SDS011;49042;47.318;19.874;2023-05-21T04:59:45;11.88;;;7.43;;
62941;SDS011;49042;47.318;19.874;2023-05-21T05:02:48;11.25;;;7.00;;
62941;SDS011;49042;47.318;19.874;2023-05-21T05:05:49;17.52;;;7.30;;
62941;SDS011;49042;47.318;19.874;2023-05-21T05:08:51;17.02;;;7.20;;
62941;SDS011;49042;47.318;19.874;2023-05-21T05:11:53;10.27;;;6.35;;
62941;SDS011;49042;47.318;19.874;2023-05-21T05:14:55;12.68;;;6.68;;
62941;SDS011;49042;47.318;19.874;2023-05-21T05:17:56;13.10;;;7.03;;
62941;SDS011;49042;47.318;19.874;2023-05-21T05:20:59;12.93;;;6.80;;
62941;SDS011;49042;47.318;19.874;2023-05-21T05:24:01;9.45;;;6.28;;
62941;SDS011;49042;47.318;19.874;2023-05-21T05:27:02;10.98;;;6.50;;
62941;SDS011;49042;47.318;19.874;2023-05-21T05:30:04;13.65;;;6.40;;
62941;SDS011;49042;47.318;19.874;2023-05-21T05:33:06;8.63;;;7.00;;
62941;SDS011;49042;47.318;19.874;2023-05-21T05:36:08;9.30;;;6.55;;
62941;SDS011;49042;47.318;19.874;2023-05-21T05:39:09;10.63;;;6.07;;
62941;SDS011;49042;47.318;19.874;2023-05-21T05:42:11;12.82;;;5.65;;
62941;SDS011;49042;47.318;19.874;2023-05-21T05:45:12;9.30;;;6.03;;
62941;SDS011;49042;47.318;19.874;2023-05-21T05:48:14;9.70;;;6.07;;
62941;SDS011;49042;47.318;19.874;2023-05-21T05:51:17;11.95;;;6.28;;
62941;SDS011;49042;47.318;19.874;2023-05-21T05:54:18;10.57;;;5.78;;
62941;SDS011;49042;47.318;19.874;2023-05-21T05:57:20;12.45;;;6.35;;
62941;SDS011;49042;47.318;19.874;2023-05-21T06:00:22;13.55;;;5.90;;
62941;SDS011;49042;47.318;19.874;2023-05-21T06:03:24;8.80;;;5.82;;
62941;SDS011;49042;47.318;19.874;2023-05-21T06:06:26;12.27;;;5.75;;
62941;SDS011;49042;47.318;19.874;2023-05-21T06:09:27;13.40;;;5.82;;
62941;SDS011;49042;47.318;19.874;2023-05-21T06:12:29;8.68;;;5.85;;
62941;SDS011;49042;47.318;19.874;2023-05-21T06:15:30;11.05;;;5.82;;
62941;SDS011;49042;47.318;19.874;2023-05-21T06:18:32;10.60;;;5.80;;
62941;SDS011;49042;47.318;19.874;2023-05-21T06:24:57;9.25;;;5.03;;
62941;SDS011;49042;47.318;19.874;2023-05-21T06:27:59;8.70;;;5.03;;
62941;SDS011;49042;47.318;19.874;2023-05-21T06:31:00;8.52;;;5.53;;
62941;SDS011;49042;47.318;19.874;2023-05-21T06:34:02;8.32;;;4.97;;
62941;SDS011;49042;47.318;19.874;2023-05-21T06:37:04;11.12;;;5.18;;
62941;SDS011;49042;47.318;19.874;2023-05-21T06:40:06;9.25;;;5.05;;
62941;SDS011;49042;47.318;19.874;2023-05-21T06:43:08;11.52;;;5.12;;
62941;SDS011;49042;47.318;19.874;2023-05-21T06:46:09;7.43;;;5.57;;
62941;SDS011;49042;47.318;19.874;2023-05-21T06:49:11;9.20;;;4.97;;
62941;SDS011;49042;47.318;19.874;2023-05-21T06:52:14;10.63;;;5.60;;
62941;SDS011;49042;47.318;19.874;2023-05-21T06:55:16;8.65;;;4.80;;
62941;SDS011;49042;47.318;19.874;2023-05-21T06:58:18;11.10;;;4.72;;
62941;SDS011;49042;47.318;19.874;2023-05-21T07:01:19;11.07;;;5.03;;
62941;SDS011;49042;47.318;19.874;2023-05-21T07:04:22;8.18;;;5.03;;
62941;SDS011;49042;47.318;19.874;2023-05-21T07:07:24;13.25;;;5.45;;
62941;SDS011;49042;47.318;19.874;2023-05-21T07:10:26;12.85;;;5.07;;
62941;SDS011;49042;47.318;19.874;2023-05-21T07:13:28;6.72;;;4.47;;
62941;SDS011;49042;47.318;19.874;2023-05-21T07:16:29;6.45;;;4.70;;
62941;SDS011;49042;47.318;19.874;2023-05-21T07:19:31;6.53;;;4.50;;
62941;SDS011;49042;47.318;19.874;2023-05-21T07:22:33;9.68;;;4.40;;
62941;SDS011;49042;47.318;19.874;2023-05-21T07:25:34;6.43;;;4.40;;
62941;SDS011;49042;47.318;19.874;2023-05-21T07:28:37;8.07;;;4.25;;
62941;SDS011;49042;47.318;19.874;2023-05-21T07:31:38;9.98;;;4.35;;
62941;SDS011;49042;47.318;19.874;2023-05-21T07:34:40;5.72;;;3.87;;
62941;SDS011;49042;47.318;19.874;2023-05-21T07:37:42;6.22;;;4.18;;
62941;SDS011;49042;47.318;19.874;2023-05-21T07:40:43;7.60;;;3.85;;
62941;SDS011;49042;47.318;19.874;2023-05-21T07:43:45;7.12;;;4.30;;
62941;SDS011;49042;47.318;19.874;2023-05-21T07:46:46;16.30;;;4.05;;
62941;SDS011;49042;47.318;19.874;2023-05-21T07:49:48;12.52;;;4.07;;
62941;SDS011;49042;47.318;19.874;2023-05-21T07:52:50;6.57;;;3.60;;
62941;SDS011;49042;47.318;19.874;2023-05-21T07:55:51;4.65;;;3.60;;
62941;SDS011;49042;47.318;19.874;2023-05-21T07:58:53;6.95;;;3.60;;
62941;SDS011;49042;47.318;19.874;2023-05-21T08:01:54;7.87;;;3.65;;
62941;SDS011;49042;47.318;19.874;2023-05-21T08:04:56;7.32;;;3.80;;
62941;SDS011;49042;47.318;19.874;2023-05-21T08:07:59;10.15;;;4.50;;
62941;SDS011;49042;47.318;19.874;2023-05-21T08:11:00;4.60;;;3.20;;
62941;SDS011;49042;47.318;19.874;2023-05-21T08:14:02;5.90;;;3.78;;
62941;SDS011;49042;47.318;19.874;2023-05-21T08:17:04;5.03;;;3.83;;
62941;SDS011;49042;47.318;19.874;2023-05-21T08:20:06;5.72;;;3.67;;
62941;SDS011;49042;47.318;19.874;2023-05-21T08:23:07;7.78;;;3.20;;
62941;SDS011;49042;47.318;19.874;2023-05-21T08:26:09;4.18;;;3.30;;
62941;SDS011;49042;47.318;19.874;2023-05-21T08:29:11;8.27;;;3.28;;
62941;SDS011;49042;47.318;19.874;2023-05-21T08:32:12;9.07;;;3.20;;
62941;SDS011;49042;47.318;19.874;2023-05-21T08:35:14;6.47;;;3.53;;
62941;SDS011;49042;47.318;19.874;2023-05-21T08:38:16;6.25;;;2.83;;
62941;SDS011;49042;47.318;19.874;2023-05-21T08:41:18;7.10;;;2.92;;
62941;SDS011;49042;47.318;19.874;2023-05-21T08:44:22;6.43;;;2.80;;
62941;SDS011;49042;47.318;19.874;2023-05-21T08:47:26;7.30;;;2.87;;
62941;SDS011;49042;47.318;19.874;2023-05-21T08:50:32;6.35;;;3.08;;
62941;SDS011;49042;47.318;19.874;2023-05-21T08:53:34;7.35;;;3.00;;
62941;SDS011;49042;47.318;19.874;2023-05-21T08:56:35;9.23;;;2.80;;
62941;SDS011;49042;47.318;19.874;2023-05-21T08:59:38;11.48;;;3.20;;
62941;SDS011;49042;47.318;19.874;2023-05-21T09:02:43;3.72;;;3.03;;
62941;SDS011;49042;47.318;19.874;2023-05-21T09:05:46;7.70;;;2.50;;
62941;SDS011;49042;47.318;19.874;2023-05-21T09:08:49;4.70;;;3.05;;
62941;SDS011;49042;47.318;19.874;2023-05-21T09:11:54;8.23;;;2.90;;
62941;SDS011;49042;47.318;19.874;2023-05-21T09:14:55;11.02;;;3.00;;
62941;SDS011;49042;47.318;19.874;2023-05-21T09:17:58;5.35;;;2.95;;
62941;SDS011;49042;47.318;19.874;2023-05-21T09:21:21;6.85;;;2.95;;
62941;SDS011;49042;47.318;19.874;2023-05-21T09:24:21;4.07;;;2.75;;
62941;SDS011;49042;47.318;19.874;2023-05-21T09:27:23;6.12;;;2.83;;
62941;SDS011;49042;47.318;19.874;2023-05-21T09:30:25;6.35;;;3.15;;
62941;SDS011;49042;47.318;19.874;2023-05-21T09:33:31;5.05;;;2.78;;
62941;SDS011;49042;47.318;19.874;2023-05-21T09:36:32;4.53;;;2.80;;
62941;SDS011;49042;47.318;19.874;2023-05-21T09:39:38;6.90;;;3.03;;
62941;SDS011;49042;47.318;19.874;2023-05-21T09:42:42;12.70;;;2.90;;
62941;SDS011;49042;47.318;19.874;2023-05-21T09:45:53;5.95;;;2.62;;
62941;SDS011;49042;47.318;19.874;2023-05-21T09:48:55;7.40;;;3.30;;
62941;SDS011;49042;47.318;19.874;2023-05-21T09:51:57;9.18;;;2.83;;
62941;SDS011;49042;47.318;19.874;2023-05-21T09:54:59;8.30;;;2.95;;
62941;SDS011;49042;47.318;19.874;2023-05-21T09:58:01;6.20;;;2.80;;
62941;SDS011;49042;47.318;19.874;2023-05-21T10:01:05;7.20;;;2.90;;
62941;SDS011;49042;47.318;19.874;2023-05-21T10:04:07;6.15;;;3.08;;
62941;SDS011;49042;47.318;19.874;2023-05-21T10:07:09;4.68;;;3.05;;
62941;SDS011;49042;47.318;19.874;2023-05-21T10:10:12;5.03;;;3.37;;
62941;SDS011;49042;47.318;19.874;2023-05-21T10:13:16;7.85;;;3.25;;
62941;SDS011;49042;47.318;19.874;2023-05-21T10:16:18;6.32;;;3.25;;
62941;SDS011;49042;47.318;19.874;2023-05-21T10:19:20;4.95;;;3.30;;
62941;SDS011;49042;47.318;19.874;2023-05-21T10:22:26;6.28;;;3.40;;
62941;SDS011;49042;47.318;19.874;2023-05-21T10:25:27;7.47;;;3.28;;
62941;SDS011;49042;47.318;19.874;2023-05-21T10:28:29;6.20;;;3.60;;
62941;SDS011;49042;47.318;19.874;2023-05-21T10:31:31;12.43;;;3.78;;
62941;SDS011;49042;47.318;19.874;2023-05-21T10:34:33;5.78;;;3.45;;
62941;SDS011;49042;47.318;19.874;2023-05-21T10:37:35;8.02;;;3.30;;
62941;SDS011;49042;47.318;19.874;2023-05-21T10:40:37;10.10;;;3.45;;
62941;SDS011;49042;47.318;19.874;2023-05-21T10:53:21;5.05;;;3.60;;
62941;SDS011;49042;47.318;19.874;2023-05-21T10:56:35;8.80;;;3.42;;
62941;SDS011;49042;47.318;19.874;2023-05-21T10:59:42;7.03;;;3.47;;
62941;SDS011;49042;47.318;19.874;2023-05-21T11:02:44;5.87;;;3.55;;
62941;SDS011;49042;47.318;19.874;2023-05-21T11:05:55;9.60;;;3.55;;
62941;SDS011;49042;47.318;19.874;2023-05-21T11:09:01;13.60;;;4.37;;
62941;SDS011;49042;47.318;19.874;2023-05-21T11:12:12;9.38;;;3.70;;
62941;SDS011;49042;47.318;19.874;2023-05-21T11:15:14;12.77;;;3.83;;
62941;SDS011;49042;47.318;19.874;2023-05-21T11:18:16;13.38;;;4.10;;
62941;SDS011;49042;47.318;19.874;2023-05-21T11:21:21;8.70;;;4.10;;
62941;SDS011;49042;47.318;19.874;2023-05-21T11:24:23;7.32;;;3.80;;
62941;SDS011;49042;47.318;19.874;2023-05-21T11:27:35;14.50;;;4.18;;
62941;SDS011;49042;47.318;19.874;2023-05-21T11:30:37;6.53;;;4.12;;
62941;SDS011;49042;47.318;19.874;2023-05-21T11:33:41;8.55;;;3.80;;
62941;SDS011;49042;47.318;19.874;2023-05-21T11:36:43;12.02;;;4.10;;
62941;SDS011;49042;47.318;19.874;2023-05-21T11:39:45;8.27;;;3.72;;
62941;SDS011;49042;47.318;19.874;2023-05-21T11:42:47;5.15;;;3.67;;
62941;SDS011;49042;47.318;19.874;2023-05-21T11:45:51;8.65;;;3.90;;
62941;SDS011;49042;47.318;19.874;2023-05-21T11:48:52;7.87;;;3.85;;
62941;SDS011;49042;47.318;19.874;2023-05-21T11:51:55;24.37;;;4.05;;
62941;SDS011;49042;47.318;19.874;2023-05-21T11:54:57;7.72;;;4.18;;
62941;SDS011;49042;47.318;19.874;2023-05-21T11:58:00;9.23;;;4.12;;
62941;SDS011;49042;47.318;19.874;2023-05-21T12:01:02;5.78;;;3.75;;
62941;SDS011;49042;47.318;19.874;2023-05-21T12:04:03;8.43;;;3.45;;
62941;SDS011;49042;47.318;19.874;2023-05-21T12:07:06;6.43;;;3.42;;
62941;SDS011;49042;47.318;19.874;2023-05-21T12:10:07;7.43;;;3.50;;
62941;SDS011;49042;47.318;19.874;2023-05-21T12:13:09;9.18;;;3.72;;
62941;SDS011;49042;47.318;19.874;2023-05-21T12:16:11;10.73;;;3.95;;
62941;SDS011;49042;47.318;19.874;2023-05-21T12:19:12;6.25;;;3.72;;
62941;SDS011;49042;47.318;19.874;2023-05-21T12:22:17;6.03;;;3.40;;
62941;SDS011;49042;47.318;19.874;2023-05-21T12:25:19;9.60;;;3.70;;
62941;SDS011;49042;47.318;19.874;2023-05-21T12:28:21;11.52;;;4.28;;
62941;SDS011;49042;47.318;19.874;2023-05-21T12:31:25;9.68;;;4.95;;
62941;SDS011;49042;47.318;19.874;2023-05-21T12:37:42;4.85;;;3.08;;
62941;SDS011;49042;47.318;19.874;2023-05-21T12:40:44;7.28;;;3.53;;
62941;SDS011;49042;47.318;19.874;2023-05-21T12:43:46;6.75;;;2.92;;
62941;SDS011;49042;47.318;19.874;2023-05-21T12:46:48;5.20;;;3.40;;
62941;SDS011;49042;47.318;19.874;2023-05-21T12:49:49;7.62;;;3.55;;
62941;SDS011;49042;47.318;19.874;2023-05-21T12:52:55;7.47;;;3.10;;
62941;SDS011;49042;47.318;19.874;2023-05-21T12:56:06;8.13;;;3.28;;
62941;SDS011;49042;47.318;19.874;2023-05-21T12:59:11;7.93;;;3.37;;
62941;SDS011;49042;47.318;19.874;2023-05-21T13:02:23;13.25;;;2.90;;
62941;SDS011;49042;47.318;19.874;2023-05-21T13:05:24;6.78;;;3.17;;
62941;SDS011;49042;47.318;19.874;2023-05-21T13:08:26;6.22;;;2.97;;
62941;SDS011;49042;47.318;19.874;2023-05-21T13:11:28;6.47;;;3.33;;
62941;SDS011;49042;47.318;19.874;2023-05-21T13:14:30;5.40;;;3.05;;
62941;SDS011;49042;47.318;19.874;2023-05-21T13:17:31;4.93;;;3.08;;
62941;SDS011;49042;47.318;19.874;2023-05-21T13:20:33;6.18;;;3.10;;
62941;SDS011;49042;47.318;19.874;2023-05-21T13:23:35;6.10;;;3.08;;
62941;SDS011;49042;47.318;19.874;2023-05-21T13:26:36;4.72;;;3.17;;
62941;SDS011;49042;47.318;19.874;2023-05-21T13:29:38;4.00;;;3.00;;
62941;SDS011;49042;47.318;19.874;2023-05-21T13:32:39;6.65;;;3.08;;
62941;SDS011;49042;47.318;19.874;2023-05-21T13:35:42;6.85;;;3.15;;
62941;SDS011;49042;47.318;19.874;2023-05-21T13:38:45;11.48;;;2.90;;
62941;SDS011;49042;47.318;19.874;2023-05-21T13:41:47;9.43;;;2.95;;
62941;SDS011;49042;47.318;19.874;2023-05-21T13:44:49;15.57;;;3.62;;
62941;SDS011;49042;47.318;19.874;2023-05-21T13:47:50;8.70;;;3.60;;
62941;SDS011;49042;47.318;19.874;2023-05-21T13:50:52;13.07;;;3.75;;
62941;SDS011;49042;47.318;19.874;2023-05-21T13:53:53;6.60;;;3.40;;
62941;SDS011;49042;47.318;19.874;2023-05-21T13:56:57;6.72;;;3.60;;
62941;SDS011;49042;47.318;19.874;2023-05-21T13:59:59;6.90;;;3.40;;
62941;SDS011;49042;47.318;19.874;2023-05-21T14:03:01;6.47;;;3.35;;
62941;SDS011;49042;47.318;19.874;2023-05-21T14:06:03;6.72;;;3.75;;
62941;SDS011;49042;47.318;19.874;2023-05-21T14:09:04;11.35;;;3.75;;
62941;SDS011;49042;47.318;19.874;2023-05-21T14:12:06;7.40;;;3.15;;
62941;SDS011;49042;47.318;19.874;2023-05-21T14:15:08;4.62;;;3.15;;
62941;SDS011;49042;47.318;19.874;2023-05-21T14:18:10;6.45;;;3.60;;
62941;SDS011;49042;47.318;19.874;2023-05-21T14:21:12;9.73;;;3.50;;
62941;SDS011;49042;47.318;19.874;2023-05-21T14:24:14;8.13;;;3.65;;
62941;SDS011;49042;47.318;19.874;2023-05-21T14:27:15;15.00;;;4.00;;
62941;SDS011;49042;47.318;19.874;2023-05-21T14:30:17;11.52;;;3.78;;
62941;SDS011;49042;47.318;19.874;2023-05-21T14:33:18;6.50;;;3.37;;
62941;SDS011;49042;47.318;19.874;2023-05-21T14:36:20;12.00;;;4.53;;
62941;SDS011;49042;47.318;19.874;2023-05-21T14:39:21;5.65;;;3.97;;
62941;SDS011;49042;47.318;19.874;2023-05-21T14:42:23;6.72;;;3.00;;
62941;SDS011;49042;47.318;19.874;2023-05-21T14:45:25;5.32;;;4.00;;
62941;SDS011;49042;47.318;19.874;2023-05-21T14:48:27;7.35;;;3.95;;
62941;SDS011;49042;47.318;19.874;2023-05-21T14:51:28;6.72;;;3.70;;
62941;SDS011;49042;47.318;19.874;2023-05-21T14:54:30;8.27;;;4.28;;
62941;SDS011;49042;47.318;19.874;2023-05-21T14:57:31;13.43;;;3.92;;
62941;SDS011;49042;47.318;19.874;2023-05-21T15:00:33;13.15;;;4.50;;
62941;SDS011;49042;47.318;19.874;2023-05-21T15:03:35;9.82;;;4.35;;
62941;SDS011;49042;47.318;19.874;2023-05-21T15:06:37;6.00;;;3.95;;
62941;SDS011;49042;47.318;19.874;2023-05-21T15:09:39;6.82;;;4.20;;
62941;SDS011;49042;47.318;19.874;2023-05-21T15:12:40;7.30;;;3.70;;
62941;SDS011;49042;47.318;19.874;2023-05-21T15:15:42;6.75;;;3.62;;
62941;SDS011;49042;47.318;19.874;2023-05-21T15:18:43;11.85;;;5.82;;
62941;SDS011;49042;47.318;19.874;2023-05-21T15:21:45;4.93;;;3.70;;
62941;SDS011;49042;47.318;19.874;2023-05-21T15:24:47;7.62;;;3.60;;
62941;SDS011;49042;47.318;19.874;2023-05-21T15:27:48;9.20;;;3.85;;
62941;SDS011;49042;47.318;19.874;2023-05-21T15:30:50;5.40;;;4.00;;
62941;SDS011;49042;47.318;19.874;2023-05-21T15:33:52;7.62;;;4.30;;
62941;SDS011;49042;47.318;19.874;2023-05-21T15:36:54;5.55;;;4.22;;
62941;SDS011;49042;47.318;19.874;2023-05-21T15:39:55;6.07;;;4.25;;
62941;SDS011;49042;47.318;19.874;2023-05-21T15:42:57;4.87;;;3.58;;
62941;SDS011;49042;47.318;19.874;2023-05-21T15:45:58;8.32;;;4.37;;
62941;SDS011;49042;47.318;19.874;2023-05-21T15:49:00;10.15;;;4.25;;
62941;SDS011;49042;47.318;19.874;2023-05-21T15:52:01;12.95;;;4.20;;
62941;SDS011;49042;47.318;19.874;2023-05-21T15:55:03;9.50;;;4.40;;
62941;SDS011;49042;47.318;19.874;2023-05-21T15:58:05;8.57;;;3.78;;
62941;SDS011;49042;47.318;19.874;2023-05-21T16:01:06;12.00;;;4.55;;
62941;SDS011;49042;47.318;19.874;2023-05-21T16:04:08;5.55;;;3.90;;
62941;SDS011;49042;47.318;19.874;2023-05-21T16:07:10;8.25;;;4.00;;
62941;SDS011;49042;47.318;19.874;2023-05-21T16:10:11;7.82;;;4.20;;
62941;SDS011;49042;47.318;19.874;2023-05-21T16:13:13;9.05;;;4.40;;
62941;SDS011;49042;47.318;19.874;2023-05-21T16:16:15;7.15;;;4.60;;
62941;SDS011;49042;47.318;19.874;2023-05-21T16:19:16;5.90;;;4.22;;
62941;SDS011;49042;47.318;19.874;2023-05-21T16:22:18;5.60;;;4.37;;
62941;SDS011;49042;47.318;19.874;2023-05-21T16:25:23;7.15;;;3.85;;
62941;SDS011;49042;47.318;19.874;2023-05-21T16:28:25;12.93;;;4.30;;
62941;SDS011;49042;47.318;19.874;2023-05-21T16:31:27;12.57;;;4.40;;
62941;SDS011;49042;47.318;19.874;2023-05-21T16:34:29;8.45;;;4.28;;
62941;SDS011;49042;47.318;19.874;2023-05-21T16:37:31;9.13;;;4.68;;
62941;SDS011;49042;47.318;19.874;2023-05-21T16:40:34;10.23;;;4.65;;
62941;SDS011;49042;47.318;19.874;2023-05-21T16:43:36;12.60;;;4.40;;
62941;SDS011;49042;47.318;19.874;2023-05-21T16:46:38;6.50;;;4.90;;
62941;SDS011;49042;47.318;19.874;2023-05-21T16:49:39;10.18;;;4.47;;
62941;SDS011;49042;47.318;19.874;2023-05-21T16:52:41;18.98;;;4.45;;
62941;SDS011;49042;47.318;19.874;2023-05-21T16:55:43;9.75;;;5.32;;
62941;SDS011;49042;47.318;19.874;2023-05-21T16:58:45;8.88;;;4.50;;
62941;SDS011;49042;47.318;19.874;2023-05-21T17:01:46;16.45;;;4.57;;
62941;SDS011;49042;47.318;19.874;2023-05-21T17:04:48;7.70;;;4.60;;
62941;SDS011;49042;47.318;19.874;2023-05-21T17:07:49;8.68;;;4.20;;
62941;SDS011;49042;47.318;19.874;2023-05-21T17:10:51;9.13;;;4.55;;
62941;SDS011;49042;47.318;19.874;2023-05-21T17:13:53;9.70;;;4.55;;
62941;SDS011;49042;47.318;19.874;2023-05-21T17:16:54;11.48;;;4.70;;
62941;SDS011;49042;47.318;19.874;2023-05-21T17:19:56;7.85;;;4.25;;
62941;SDS011;49042;47.318;19.874;2023-05-21T17:22:57;8.98;;;4.35;;
62941;SDS011;49042;47.318;19.874;2023-05-21T17:25:59;9.38;;;4.40;;
62941;SDS011;49042;47.318;19.874;2023-05-21T17:29:01;6.60;;;4.03;;
62941;SDS011;49042;47.318;19.874;2023-05-21T17:32:03;5.78;;;4.03;;
62941;SDS011;49042;47.318;19.874;2023-05-21T17:35:05;6.10;;;4.30;;
62941;SDS011;49042;47.318;19.874;2023-05-21T17:38:07;11.50;;;4.70;;
62941;SDS011;49042;47.318;19.874;2023-05-21T17:41:09;12.90;;;4.62;;
62941;SDS011;49042;47.318;19.874;2023-05-21T17:44:10;9.13;;;4.07;;
62941;SDS011;49042;47.318;19.874;2023-05-21T17:47:13;6.40;;;4.60;;
62941;SDS011;49042;47.318;19.874;2023-05-21T17:50:15;6.78;;;4.35;;
62941;SDS011;49042;47.318;19.874;2023-05-21T17:53:17;5.80;;;4.15;;
62941;SDS011;49042;47.318;19.874;2023-05-21T17:56:18;7.15;;;4.62;;
62941;SDS011;49042;47.318;19.874;2023-05-21T17:59:20;13.55;;;5.15;;
62941;SDS011;49042;47.318;19.874;2023-05-21T18:02:22;9.43;;;5.18;;
62941;SDS011;49042;47.318;19.874;2023-05-21T18:05:24;12.02;;;6.30;;
62941;SDS011;49042;47.318;19.874;2023-05-21T18:08:25;9.60;;;5.40;;
62941;SDS011;49042;47.318;19.874;2023-05-21T18:11:27;12.82;;;6.18;;